Spring Creek, Texas
Current Conditions -  °F | °C
As of 6:15 PM on Sunday 25 Jan 2015 (Local Time) from KT82 Reporting Station
Clear Clear  
Wind Chill: 50°   Ceiling: Unl
Heat Index: 50°   Visibility: 10mi
Dew Point: 34°   Wind: 0mph
Humidity: 53%   Direction: NA
Pressure: 30.18"   Gusts: NA
Location:  30.3069°N, 98.8978°W
Report Text: KT82 260015Z AUTO 00000KT 10SM CLR 10/01 A3018 RMK AO2 T01020009
Loading
Personal Weather Stations






























Interactive Weather Map New forecast layout! Learn more

10-Day Weather Forecast

Advertisements
Track Severe Weather on mobile